MSC Rania — 3EEB3 — position and weather

sailwx.info

Track history (hours):
 
Tides and Currents Weather Stations Pressure Air Temp Water Temp Dewpoint Dewpoint Depression Visibility Wind Speed Wind Dir Waves Ship Positions

MSC Rania

Last reported at 2016-Sep-26 02:33 UTC. Time now 2016-Sep-26 07:05 UTC.
Position N 40°08' W 028°01'.

Length 332 m; draft 13.3 m.

Type: Ship (hazmat cat A). MMSI: 371752000.

Date/timePositionNaut miles runAvg speedWind from/ knotsBaromVisibWave heightAir tempDewpointWater temp
2016-Sep-26 02:33N 40°08' W 028°01'2316.4
2016-Sep-26 01:10N 40°12' W 028°30'1016.3
2016-Sep-26 00:33N 40°13' W 028°43'5016.8
2016-Sep-25 21:33N 40°20' W 029°49'  
2016-Sep-20 14:33N 36°60' W 076°01'1110.2
2016-Sep-20 13:28N 37°09' W 076°09'10114.6
2016-Sep-20 06:31N 38°49' W 076°24'27 6.4
2016-Sep-20 02:24N 39°15' W 076°33'0 0.0
2016-Sep-19 23:27N 39°15' W 076°33'0 0.0
2016-Sep-19 19:33N 39°15' W 076°33'0 0.0
2016-Sep-19 18:33N 39°15' W 076°33'0 0.0
2016-Sep-19 16:27N 39°15' W 076°33'0 0.0
2016-Sep-19 14:33N 39°15' W 076°33'0 0.0
2016-Sep-19 13:33N 39°15' W 076°33'0 0.0
2016-Sep-19 12:33N 39°15' W 076°33'0 0.0
2016-Sep-19 11:33N 39°15' W 076°33'0 0.0
2016-Sep-19 09:33N 39°15' W 076°33'0 0.0
2016-Sep-19 07:32N 39°15' W 076°33'0 0.0
2016-Sep-19 06:32N 39°15' W 076°33'0 0.0
2016-Sep-19 03:32N 39°15' W 076°33'0 0.0
2016-Sep-19 02:32N 39°15' W 076°33'0 0.0
2016-Sep-19 00:32N 39°15' W 076°33'0 0.0
2016-Sep-18 19:32N 39°15' W 076°33'0 0.0
2016-Sep-18 15:32N 39°15' W 076°33'0 0.0
2016-Sep-18 14:32N 39°15' W 076°33'0 0.0
2016-Sep-18 10:32N 39°15' W 076°33'0 0.0
2016-Sep-18 09:32N 39°15' W 076°33'66 9.5
2016-Sep-18 02:33N 38°10' W 076°14'1817.9
2016-Sep-18 01:33N 37°53' W 076°10'5613.9
2016-Sep-17 21:33N 36°58' W 075°59'1111.2
2016-Sep-17 20:33N 36°51' W 075°49'7 5.7
2016-Sep-17 19:16N 36°55' W 075°56'20 3.3
2016-Sep-17 13:14N 36°52' W 076°21'0 0.0
2016-Sep-17 12:26N 36°52' W 076°21'0 0.0
2016-Sep-17 10:31N 36°52' W 076°21'0 0.0
2016-Sep-17 09:31N 36°52' W 076°21'0 0.0
2016-Sep-17 08:28N 36°52' W 076°21'0 0.0
2016-Sep-17 07:31N 36°52' W 076°21'0 0.0
2016-Sep-17 05:31N 36°52' W 076°21'0 0.0
2016-Sep-17 04:31N 36°52' W 076°21'0 0.0
2016-Sep-17 00:19N 36°52' W 076°21'0 0.0
2016-Sep-16 17:31N 36°52' W 076°21'0 0.0
2016-Sep-16 15:10N 36°52' W 076°21'13 4.7
2016-Sep-16 12:29N 36°59' W 076°07'  
Track history (hours):
 
Tides and Currents Weather Stations Pressure Air Temp Water Temp Dewpoint Dewpoint Depression Visibility Wind Speed Wind Dir Waves Ship Positions

MSC Rania

Last reported at 2016-Sep-26 02:33 UTC. Time now 2016-Sep-26 07:05 UTC.
Position N 40°08' W 028°01'.

Length 332 m; draft 13.3 m.

Type: Ship (hazmat cat A). MMSI: 371752000.

Date/timePositionNaut miles runAvg speedWind from/ knotsBaromVisibWave heightAir tempDewpointWater temp
2016-Sep-26 02:33N 40°08' W 028°01'2316.4
2016-Sep-26 01:10N 40°12' W 028°30'1016.3
2016-Sep-26 00:33N 40°13' W 028°43'5016.8
2016-Sep-25 21:33N 40°20' W 029°49'  
2016-Sep-20 14:33N 36°60' W 076°01'1110.2
2016-Sep-20 13:28N 37°09' W 076°09'10114.6
2016-Sep-20 06:31N 38°49' W 076°24'27 6.4
2016-Sep-20 02:24N 39°15' W 076°33'0 0.0
2016-Sep-19 23:27N 39°15' W 076°33'0 0.0
2016-Sep-19 19:33N 39°15' W 076°33'0 0.0
2016-Sep-19 18:33N 39°15' W 076°33'0 0.0
2016-Sep-19 16:27N 39°15' W 076°33'0 0.0
2016-Sep-19 14:33N 39°15' W 076°33'0 0.0
2016-Sep-19 13:33N 39°15' W 076°33'0 0.0
2016-Sep-19 12:33N 39°15' W 076°33'0 0.0
2016-Sep-19 11:33N 39°15' W 076°33'0 0.0
2016-Sep-19 09:33N 39°15' W 076°33'0 0.0
2016-Sep-19 07:32N 39°15' W 076°33'0 0.0
2016-Sep-19 06:32N 39°15' W 076°33'0 0.0
2016-Sep-19 03:32N 39°15' W 076°33'0 0.0
2016-Sep-19 02:32N 39°15' W 076°33'0 0.0
2016-Sep-19 00:32N 39°15' W 076°33'0 0.0
2016-Sep-18 19:32N 39°15' W 076°33'0 0.0
2016-Sep-18 15:32N 39°15' W 076°33'0 0.0
2016-Sep-18 14:32N 39°15' W 076°33'0 0.0
2016-Sep-18 10:32N 39°15' W 076°33'0 0.0
2016-Sep-18 09:32N 39°15' W 076°33'66 9.5
2016-Sep-18 02:33N 38°10' W 076°14'1817.9
2016-Sep-18 01:33N 37°53' W 076°10'5613.9
2016-Sep-17 21:33N 36°58' W 075°59'1111.2
2016-Sep-17 20:33N 36°51' W 075°49'7 5.7
2016-Sep-17 19:16N 36°55' W 075°56'20 3.3
2016-Sep-17 13:14N 36°52' W 076°21'0 0.0
2016-Sep-17 12:26N 36°52' W 076°21'0 0.0
2016-Sep-17 10:31N 36°52' W 076°21'0 0.0
2016-Sep-17 09:31N 36°52' W 076°21'0 0.0
2016-Sep-17 08:28N 36°52' W 076°21'0 0.0
2016-Sep-17 07:31N 36°52' W 076°21'0 0.0
2016-Sep-17 05:31N 36°52' W 076°21'0 0.0
2016-Sep-17 04:31N 36°52' W 076°21'0 0.0
2016-Sep-17 00:19N 36°52' W 076°21'0 0.0
2016-Sep-16 17:31N 36°52' W 076°21'0 0.0
2016-Sep-16 15:10N 36°52' W 076°21'13 4.7
2016-Sep-16 12:29N 36°59' W 076°07'  

Dump ship's entire track history